Time;durP1;ratioP1;P1;durP2;ratioP2;P2;SDS_P1;SDS_P2;PMS_P1;PMS_P2;Temp;Humidity;BMP_temperature;BMP_pressure;BME280_temperature;BME280_humidity;BME280_pressure;Samples;Min_cycle;Max_cycle;Signal;HPM_P1;HPM_P2
2023/09/19 00:00:37;;;;;;;1999.90;999.90;;;16.90;99.90;;;;;;5051161;28;20195;-65
2023/09/19 00:03:04;;;;;;;1999.90;999.90;;;16.90;99.90;;;;;;5052556;28;20470;-66
2023/09/19 00:05:34;;;;;;;1999.90;999.90;;;16.80;99.90;;;;;;5052638;28;20401;-67
2023/09/19 00:08:01;;;;;;;1999.90;999.90;;;16.80;99.90;;;;;;5052703;28;20529;-63
2023/09/19 00:10:36;;;;;;;1999.90;999.90;;;16.80;99.90;;;;;;5052824;28;20404;-63
2023/09/19 00:13:07;;;;;;;1999.90;999.90;;;16.80;99.90;;;;;;5051345;28;20975;-66
2023/09/19 00:15:38;;;;;;;1999.90;999.90;;;16.80;99.90;;;;;;5052630;28;20453;-65
2023/09/19 00:18:08;;;;;;;1999.90;999.90;;;16.70;99.90;;;;;;5051662;28;20408;-66
2023/09/19 00:20:36;;;;;;;1999.90;999.90;;;16.70;99.90;;;;;;5051825;28;20417;-67
2023/09/19 00:23:05;;;;;;;1999.90;999.90;;;16.70;99.90;;;;;;5050399;28;20437;-66
2023/09/19 00:25:32;;;;;;;1999.90;999.90;;;16.80;99.90;;;;;;5053292;28;20511;-65
2023/09/19 00:27:58;;;;;;;1999.90;999.90;;;16.90;99.90;;;;;;5055464;28;20468;-64
2023/09/19 00:30:24;;;;;;;1999.90;999.90;;;16.90;99.90;;;;;;5054536;28;20472;-67
2023/09/19 00:32:54;;;;;;;1999.90;999.90;;;16.90;99.90;;;;;;5046413;28;20421;-66
2023/09/19 00:35:24;;;;;;;1999.90;999.90;;;16.90;99.90;;;;;;5034338;28;20501;-66
2023/09/19 00:37:50;;;;;;;1999.90;999.90;;;16.90;99.90;;;;;;5034380;28;20423;-66
2023/09/19 00:40:16;;;;;;;1999.90;999.90;;;17.00;99.90;;;;;;5034242;28;20415;-66
2023/09/19 00:42:43;;;;;;;1999.90;999.90;;;17.00;99.90;;;;;;5034153;28;20449;-66
2023/09/19 00:45:13;;;;;;;1999.90;999.90;;;17.10;99.90;;;;;;5034155;28;20424;-67
2023/09/19 00:47:44;;;;;;;1999.90;999.90;;;17.10;99.90;;;;;;5033916;28;20449;-66
2023/09/19 00:50:10;;;;;;;1999.90;999.90;;;17.10;99.90;;;;;;5034236;28;20404;-66
2023/09/19 00:52:38;;;;;;;1999.90;999.90;;;17.10;99.90;;;;;;5034153;28;20558;-67
2023/09/19 00:55:08;;;;;;;1999.90;999.90;;;17.00;99.90;;;;;;5033956;28;20413;-66
2023/09/19 00:57:36;;;;;;;1999.90;999.90;;;17.00;99.90;;;;;;5033847;28;20513;-66
2023/09/19 01:00:07;;;;;;;1999.90;999.90;;;17.00;99.90;;;;;;5034066;28;20401;-66
2023/09/19 01:02:33;;;;;;;1999.90;999.90;;;17.00;99.90;;;;;;5033881;28;20460;-66
2023/09/19 01:05:04;;;;;;;1999.90;999.90;;;17.00;99.90;;;;;;5033822;28;20411;-67
2023/09/19 01:07:31;;;;;;;1999.90;999.90;;;17.10;99.90;;;;;;5033769;28;20463;-66
2023/09/19 01:10:09;;;;;;;1999.90;999.90;;;17.00;99.90;;;;;;5033712;28;20404;-66
2023/09/19 01:13:24;;;;;;;1999.90;999.90;;;17.00;99.90;;;;;;5033712;28;20477;-67
2023/09/19 01:16:19;;;;;;;1999.90;999.90;;;17.00;99.90;;;;;;5020275;28;20419;-66
2023/09/19 01:19:20;;;;;;;1999.90;999.90;;;16.90;99.90;;;;;;5015293;28;20415;-66
2023/09/19 01:22:00;;;;;;;1999.90;999.90;;;16.90;99.90;;;;;;5033605;28;20449;-66
2023/09/19 01:24:59;;;;;;;1999.90;999.90;;;16.80;99.90;;;;;;5033524;28;20454;-66
2023/09/19 01:27:49;;;;;;;1999.90;999.90;;;16.80;99.90;;;;;;5033514;28;20470;-67
2023/09/19 01:30:22;;;;;;;1999.90;999.90;;;16.80;99.90;;;;;;5033332;28;20402;-67
2023/09/19 01:32:52;;;;;;;1999.90;999.90;;;16.70;99.90;;;;;;5033613;28;20421;-67
2023/09/19 01:35:18;;;;;;;1999.90;999.90;;;16.70;99.90;;;;;;5032848;28;20912;-66
2023/09/19 01:37:44;;;;;;;1999.90;999.90;;;16.70;99.90;;;;;;5033181;28;20406;-65
2023/09/19 01:40:20;;;;;;;1999.90;999.90;;;16.70;99.90;;;;;;5033308;28;20501;-65
2023/09/19 01:42:48;;;;;;;1999.90;999.90;;;16.70;99.90;;;;;;5032949;28;20422;-67
2023/09/19 01:45:31;;;;;;;1999.90;999.90;;;16.60;99.90;;;;;;5032993;28;20407;-65
2023/09/19 01:48:21;;;;;;;1999.90;999.90;;;16.60;99.90;;;;;;5033124;28;20458;-66
2023/09/19 01:50:59;;;;;;;1999.90;999.90;;;16.60;99.90;;;;;;5028979;28;20432;-65
2023/09/19 01:53:30;;;;;;;1999.90;999.90;;;16.60;99.90;;;;;;5032821;28;20470;-67
2023/09/19 01:55:57;;;;;;;1999.90;999.90;;;16.50;99.90;;;;;;5032856;28;20795;-66
2023/09/19 01:58:48;;;;;;;1999.90;999.90;;;16.50;99.90;;;;;;5032906;28;20479;-65
2023/09/19 02:01:18;;;;;;;1999.90;999.90;;;16.40;99.90;;;;;;5032957;28;20845;-66
2023/09/19 02:03:47;;;;;;;1999.90;999.90;;;16.40;99.90;;;;;;5032436;28;20501;-67
2023/09/19 02:06:17;;;;;;;1999.90;999.90;;;16.30;99.90;;;;;;5033005;28;20410;-66
2023/09/19 02:08:44;;;;;;;1999.90;999.90;;;16.30;99.90;;;;;;5032279;28;20462;-66
2023/09/19 02:11:10;;;;;;;1999.90;999.90;;;16.20;99.90;;;;;;5032683;28;20401;-66
2023/09/19 02:13:37;;;;;;;1999.90;999.90;;;16.20;99.90;;;;;;5032181;28;20476;-65
2023/09/19 02:16:04;;;;;;;1999.90;999.90;;;16.10;99.90;;;;;;5032468;28;20433;-65
2023/09/19 02:18:30;;;;;;;1999.90;999.90;;;16.10;99.90;;;;;;5032648;28;20446;-66
2023/09/19 02:20:58;;;;;;;1999.90;999.90;;;16.10;99.90;;;;;;5032741;28;20410;-66
2023/09/19 02:23:24;;;;;;;1999.90;999.90;;;16.00;99.90;;;;;;5032304;28;20441;-66
2023/09/19 02:25:54;;;;;;;1999.90;999.90;;;16.00;99.90;;;;;;5032241;28;20489;-66
2023/09/19 02:28:20;;;;;;;1999.90;999.90;;;16.00;99.90;;;;;;5032224;28;20545;-66
2023/09/19 02:30:49;;;;;;;1999.90;999.90;;;16.00;99.90;;;;;;5018878;28;20412;-66
2023/09/19 02:33:15;;;;;;;1999.90;999.90;;;15.90;99.90;;;;;;5012436;28;20432;-66
2023/09/19 02:35:40;;;;;;;1999.90;999.90;;;15.90;99.90;;;;;;5012246;28;20797;-67
2023/09/19 02:38:11;;;;;;;1999.90;999.90;;;15.80;99.90;;;;;;5012437;28;20417;-66
2023/09/19 02:40:37;;;;;;;1999.90;999.90;;;15.80;99.90;;;;;;5012541;28;20611;-66
2023/09/19 02:43:03;;;;;;;1999.90;999.90;;;15.80;99.90;;;;;;5012015;28;20462;-67
2023/09/19 02:45:30;;;;;;;1999.90;999.90;;;15.80;99.90;;;;;;5012080;28;20415;-66
2023/09/19 02:47:56;;;;;;;1999.90;999.90;;;15.70;99.90;;;;;;5011689;28;20462;-65
2023/09/19 02:50:21;;;;;;;1999.90;999.90;;;15.60;99.90;;;;;;5012193;28;20779;-66
2023/09/19 02:52:48;;;;;;;1999.90;999.90;;;15.60;99.90;;;;;;5012175;28;20434;-67
2023/09/19 02:55:19;;;;;;;1999.90;999.90;;;15.60;99.90;;;;;;5011967;28;20164;-65
2023/09/19 02:57:49;;;;;;;1999.90;999.90;;;15.70;99.90;;;;;;5012067;28;20811;-65
2023/09/19 03:00:21;;;;;;;1999.90;999.90;;;15.60;99.90;;;;;;5012395;28;20903;-66
2023/09/19 03:02:54;;;;;;;1999.90;999.90;;;15.60;99.90;;;;;;5011869;28;20961;-66
2023/09/19 03:05:21;;;;;;;1999.90;999.90;;;15.60;99.90;;;;;;5011913;28;20418;-68
2023/09/19 03:07:53;;;;;;;1999.90;999.90;;;15.50;99.90;;;;;;5011906;28;20458;-67
2023/09/19 03:10:20;;;;;;;1999.90;999.90;;;15.50;99.90;;;;;;5011872;28;20494;-66
2023/09/19 03:12:49;;;;;;;1999.90;999.90;;;15.60;99.90;;;;;;5012067;28;20457;-65
2023/09/19 03:15:15;;;;;;;1999.90;999.90;;;15.50;99.90;;;;;;5011656;28;20407;-65
2023/09/19 03:17:47;;;;;;;1999.90;999.90;;;15.50;99.90;;;;;;5011876;28;20409;-65
2023/09/19 03:20:17;;;;;;;1999.90;999.90;;;15.50;99.90;;;;;;5011969;28;20644;-67
2023/09/19 03:22:43;;;;;;;1999.90;999.90;;;15.50;99.90;;;;;;5011545;28;20439;-66
2023/09/19 03:25:09;;;;;;;1999.90;999.90;;;15.40;99.90;;;;;;5011547;28;20417;-65
2023/09/19 03:27:35;;;;;;;1999.90;999.90;;;15.40;99.90;;;;;;5011691;28;21085;-66
2023/09/19 03:30:05;;;;;;;1999.90;999.90;;;15.40;99.90;;;;;;5011676;28;20499;-66
2023/09/19 03:32:31;;;;;;;1999.90;999.90;;;15.40;99.90;;;;;;5011600;28;20227;-66
2023/09/19 03:34:58;;;;;;;1999.90;999.90;;;15.40;99.90;;;;;;5011388;28;20434;-67
2023/09/19 03:37:23;;;;;;;1999.90;999.90;;;15.40;99.90;;;;;;5011547;28;20419;-65
2023/09/19 03:39:49;;;;;;;1999.90;999.90;;;15.40;99.90;;;;;;5011996;28;20549;-65
2023/09/19 03:42:15;;;;;;;1999.90;999.90;;;15.40;99.90;;;;;;5011594;28;20742;-66
2023/09/19 03:44:40;;;;;;;1999.90;999.90;;;15.40;99.90;;;;;;5011269;28;20176;-66
2023/09/19 03:47:06;;;;;;;1999.90;999.90;;;15.40;99.90;;;;;;5011643;28;20196;-66
2023/09/19 03:49:33;;;;;;;1999.90;999.90;;;15.40;99.90;;;;;;5011454;28;20175;-67
2023/09/19 03:51:59;;;;;;;1999.90;999.90;;;15.40;99.90;;;;;;5011396;28;20484;-67
2023/09/19 03:54:25;;;;;;;1999.90;999.90;;;15.40;99.90;;;;;;5011539;28;20901;-67
2023/09/19 03:56:50;;;;;;;1999.90;999.90;;;15.40;99.90;;;;;;5011347;28;20214;-66
2023/09/19 03:59:18;;;;;;;1999.90;999.90;;;15.40;99.90;;;;;;5012898;28;20214;-67
2023/09/19 04:01:43;;;;;;;1999.90;999.90;;;15.30;99.90;;;;;;5015502;28;20727;-67
2023/09/19 04:04:09;;;;;;;1999.90;999.90;;;15.30;99.90;;;;;;5014921;28;20454;-66
2023/09/19 04:06:35;;;;;;;1999.90;999.90;;;15.30;99.90;;;;;;5015178;28;20638;-67
2023/09/19 04:09:03;;;;;;;1999.90;999.90;;;15.30;99.90;;;;;;5015170;28;20724;-66
2023/09/19 04:11:30;;;;;;;1999.90;999.90;;;15.30;99.90;;;;;;5015027;28;20412;-65
2023/09/19 04:13:56;;;;;;;1999.90;999.90;;;15.30;99.90;;;;;;5015036;28;20511;-66
2023/09/19 04:16:21;;;;;;;1999.90;999.90;;;15.30;99.90;;;;;;5015041;28;20419;-67
2023/09/19 04:18:47;;;;;;;1999.90;999.90;;;15.30;99.90;;;;;;5014969;28;20412;-66
2023/09/19 04:21:13;;;;;;;1999.90;999.90;;;15.20;99.90;;;;;;5014987;28;20250;-67
2023/09/19 04:23:38;;;;;;;1999.90;999.90;;;15.20;99.90;;;;;;5014502;28;20907;-67
2023/09/19 04:26:04;;;;;;;1999.90;999.90;;;15.20;99.90;;;;;;5014922;28;20190;-66
2023/09/19 04:28:31;;;;;;;1999.90;999.90;;;15.20;99.90;;;;;;5014937;28;20664;-67
2023/09/19 04:30:58;;;;;;;1999.90;999.90;;;15.30;99.90;;;;;;5014866;28;20823;-67
2023/09/19 04:33:24;;;;;;;1999.90;999.90;;;15.30;99.90;;;;;;5014621;28;20488;-68
2023/09/19 04:35:50;;;;;;;1999.90;999.90;;;15.20;99.90;;;;;;5014331;28;20426;-66
2023/09/19 04:38:18;;;;;;;1999.90;999.90;;;15.20;99.90;;;;;;5014817;28;20506;-67
2023/09/19 04:40:44;;;;;;;1999.90;999.90;;;15.20;99.90;;;;;;5014734;28;20459;-66
2023/09/19 04:43:10;;;;;;;1999.90;999.90;;;15.20;99.90;;;;;;5014472;28;20475;-67
2023/09/19 04:45:38;;;;;;;1999.90;999.90;;;15.20;99.90;;;;;;5014221;28;20184;-66
2023/09/19 04:48:03;;;;;;;1999.90;999.90;;;15.20;99.90;;;;;;5014468;28;20728;-67
2023/09/19 04:50:29;;;;;;;1999.90;999.90;;;15.10;99.90;;;;;;5014334;28;20614;-66
2023/09/19 04:52:55;;;;;;;1999.90;999.90;;;15.20;99.90;;;;;;5014623;28;20436;-66
2023/09/19 04:55:20;;;;;;;1999.90;999.90;;;15.10;99.90;;;;;;5013981;28;20165;-67
2023/09/19 04:57:48;;;;;;;1999.90;999.90;;;15.10;99.90;;;;;;5014177;28;20625;-67
2023/09/19 05:00:16;;;;;;;1999.90;999.90;;;15.10;99.90;;;;;;5014346;28;20176;-67
2023/09/19 05:02:42;;;;;;;1999.90;999.90;;;15.10;99.90;;;;;;5014113;28;20948;-66
2023/09/19 05:05:10;;;;;;;1999.90;999.90;;;15.00;99.90;;;;;;5014021;28;20414;-67
2023/09/19 05:07:36;;;;;;;1999.90;999.90;;;15.10;99.90;;;;;;5014384;28;20553;-66
2023/09/19 05:10:05;;;;;;;1999.90;999.90;;;15.10;99.90;;;;;;5013472;28;20965;-66
2023/09/19 05:12:32;;;;;;;1999.90;999.90;;;15.10;99.90;;;;;;5013559;28;20427;-67
2023/09/19 05:14:57;;;;;;;1999.90;999.90;;;15.10;99.90;;;;;;5013815;28;20408;-67
2023/09/19 05:17:24;;;;;;;1999.90;999.90;;;15.10;99.90;;;;;;5013769;28;20413;-67
2023/09/19 05:19:50;;;;;;;1999.90;999.90;;;15.10;99.90;;;;;;5013712;28;20211;-66
2023/09/19 05:22:17;;;;;;;1999.90;999.90;;;15.10;99.90;;;;;;5013823;28;20424;-67
2023/09/19 05:24:43;;;;;;;1999.90;999.90;;;15.10;99.90;;;;;;5013390;28;20193;-67
2023/09/19 05:27:09;;;;;;;1999.90;999.90;;;15.10;99.90;;;;;;5013787;28;20518;-67
2023/09/19 05:29:34;;;;;;;1999.90;999.90;;;15.20;99.90;;;;;;5013753;28;20421;-66
2023/09/19 05:32:00;;;;;;;1999.90;999.90;;;15.10;99.90;;;;;;5013375;28;20172;-67
2023/09/19 05:34:30;;;;;;;1999.90;999.90;;;15.20;99.90;;;;;;5013391;28;20699;-66
2023/09/19 05:36:55;;;;;;;1999.90;999.90;;;15.10;99.90;;;;;;5013820;28;20663;-67
2023/09/19 05:39:22;;;;;;;1999.90;999.90;;;15.20;99.90;;;;;;5013456;28;20411;-66
2023/09/19 05:41:48;;;;;;;1999.90;999.90;;;15.20;99.90;;;;;;5013573;28;20259;-66
2023/09/19 05:44:16;;;;;;;1999.90;999.90;;;15.10;99.90;;;;;;5012962;28;20542;-67
2023/09/19 05:46:42;;;;;;;1999.90;999.90;;;15.10;99.90;;;;;;5013300;28;20183;-67
2023/09/19 05:49:08;;;;;;;1999.90;999.90;;;15.10;99.90;;;;;;5010708;28;20466;-67
2023/09/19 05:51:35;;;;;;;1999.90;999.90;;;15.10;99.90;;;;;;5022281;28;20172;-67
2023/09/19 05:54:01;;;;;;;1999.90;999.90;;;15.00;99.90;;;;;;5024601;28;20462;-67
2023/09/19 05:56:27;;;;;;;1999.90;999.90;;;15.10;99.90;;;;;;5032826;28;20462;-67
2023/09/19 05:58:53;;;;;;;1999.90;999.90;;;15.10;99.90;;;;;;5032883;28;20554;-67
2023/09/19 06:01:19;;;;;;;1999.90;999.90;;;15.00;99.90;;;;;;5032943;28;20885;-67
2023/09/19 06:03:44;;;;;;;1999.90;999.90;;;15.10;99.90;;;;;;5032711;28;20444;-67
2023/09/19 06:06:10;;;;;;;1999.90;999.90;;;15.10;99.90;;;;;;5032888;28;20804;-67
2023/09/19 06:08:35;;;;;;;1999.90;999.90;;;15.10;99.90;;;;;;5032720;28;20222;-67
2023/09/19 06:11:02;;;;;;;1999.90;999.90;;;15.10;99.90;;;;;;5032683;28;20758;-67
2023/09/19 06:13:33;;;;;;;1999.90;999.90;;;15.10;99.90;;;;;;5032491;28;20679;-68
2023/09/19 06:15:59;;;;;;;1999.90;999.90;;;15.10;99.90;;;;;;5032796;28;20488;-66
2023/09/19 06:18:26;;;;;;;1999.90;999.90;;;15.20;99.90;;;;;;5032528;28;20545;-67
2023/09/19 06:20:52;;;;;;;1999.90;999.90;;;15.20;99.90;;;;;;5032469;28;20419;-67
2023/09/19 06:23:19;;;;;;;1999.90;999.90;;;15.20;99.90;;;;;;5032387;28;20428;-66
2023/09/19 06:25:45;;;;;;;1999.90;999.90;;;15.20;99.90;;;;;;5032113;28;20464;-68
2023/09/19 06:28:16;;;;;;;1999.90;999.90;;;15.30;99.90;;;;;;5032159;28;20448;-67
2023/09/19 06:30:42;;;;;;;1999.90;999.90;;;15.60;99.90;;;;;;5003495;28;20213;-67
2023/09/19 06:33:08;;;;;;;1999.90;999.90;;;15.30;99.90;;;;;;5002154;28;20453;-67
2023/09/19 06:35:34;;;;;;;1999.90;999.90;;;15.30;99.90;;;;;;5004143;28;20412;-67
2023/09/19 06:38:03;;;;;;;1999.90;999.90;;;15.40;99.90;;;;;;5012407;28;20949;-68
2023/09/19 06:40:30;;;;;;;1999.90;999.90;;;15.50;99.90;;;;;;5012567;28;20214;-67
2023/09/19 06:42:57;;;;;;;1999.90;999.90;;;15.50;99.90;;;;;;5012273;28;20931;-67
2023/09/19 06:45:22;;;;;;;1999.90;999.90;;;15.50;99.90;;;;;;5012151;28;20451;-67
2023/09/19 06:47:51;;;;;;;1999.90;999.90;;;15.60;99.90;;;;;;5012354;28;20493;-67
2023/09/19 06:50:18;;;;;;;1999.90;999.90;;;15.60;99.90;;;;;;5012474;28;20536;-67
2023/09/19 06:52:45;;;;;;;1999.90;999.90;;;15.70;99.90;;;;;;5012122;28;20843;-68
2023/09/19 06:55:13;;;;;;;1999.90;999.90;;;15.60;99.90;;;;;;5011193;28;20868;-67
2023/09/19 06:57:40;;;;;;;1999.90;999.90;;;15.70;99.90;;;;;;5019459;28;20516;-68
2023/09/19 07:00:15;;;;;;;1999.90;999.90;;;15.70;99.90;;;;;;5023698;28;20415;-67
2023/09/19 07:02:44;;;;;;;1999.90;999.90;;;15.70;99.90;;;;;;5025810;28;20458;-67
2023/09/19 07:05:10;;;;;;;1999.90;999.90;;;15.70;99.90;;;;;;5022487;28;20423;-67
2023/09/19 07:07:36;;;;;;;1999.90;999.90;;;15.80;99.90;;;;;;5031793;28;20467;-67
2023/09/19 07:10:05;;;;;;;1999.90;999.90;;;15.80;99.90;;;;;;5032005;28;20498;-67
2023/09/19 07:12:32;;;;;;;1999.90;999.90;;;15.80;99.90;;;;;;5013821;28;20189;-67
2023/09/19 07:14:58;;;;;;;1999.90;999.90;;;15.90;99.90;;;;;;5029345;28;21151;-67
2023/09/19 07:17:23;;;;;;;1999.90;999.90;;;16.00;99.90;;;;;;5031542;28;20512;-67
2023/09/19 07:19:50;;;;;;;1999.90;999.90;;;16.00;99.90;;;;;;5031734;28;20273;-67
2023/09/19 07:22:16;;;;;;;1999.90;999.90;;;16.00;99.90;;;;;;5031515;28;20233;-67
2023/09/19 07:24:41;;;;;;;1999.90;999.90;;;16.10;99.90;;;;;;5031437;28;20909;-67
2023/09/19 07:27:07;;;;;;;1999.90;999.90;;;16.10;99.90;;;;;;5031734;28;20258;-67
2023/09/19 07:29:32;;;;;;;1999.90;999.90;;;16.10;99.90;;;;;;5020808;28;20177;-67
2023/09/19 07:31:58;;;;;;;1999.90;999.90;;;16.20;99.90;;;;;;5028673;28;20180;-67
2023/09/19 07:34:24;;;;;;;1999.90;999.90;;;16.30;99.90;;;;;;5035136;28;20225;-67
2023/09/19 07:36:50;;;;;;;1999.90;999.90;;;16.50;99.90;;;;;;5037904;28;20624;-68
2023/09/19 07:39:15;;;;;;;1999.90;999.90;;;16.40;99.90;;;;;;5038072;28;20418;-67
2023/09/19 07:41:41;;;;;;;1999.90;999.90;;;16.40;99.90;;;;;;5034275;28;20256;-67
2023/09/19 07:44:07;;;;;;;1999.90;999.90;;;16.50;99.90;;;;;;5026619;28;20198;-67
2023/09/19 07:46:33;;;;;;;1999.90;999.90;;;16.60;99.90;;;;;;5026678;28;20951;-67
2023/09/19 07:49:00;;;;;;;1999.90;999.90;;;16.60;99.90;;;;;;5029811;28;20456;-67
2023/09/19 07:51:26;;;;;;;1999.90;999.90;;;16.60;99.90;;;;;;5037914;28;20343;-68
2023/09/19 07:53:52;;;;;;;1999.90;999.90;;;16.70;99.90;;;;;;5037859;28;20432;-67
2023/09/19 07:56:20;;;;;;;1999.90;999.90;;;16.70;99.90;;;;;;5030579;28;20430;-67
2023/09/19 07:58:46;;;;;;;1999.90;999.90;;;16.70;99.90;;;;;;5027809;28;20499;-67
2023/09/19 08:01:13;;;;;;;1999.90;999.90;;;16.80;99.90;;;;;;5029521;28;20437;-67
2023/09/19 08:03:43;;;;;;;1999.90;999.90;;;16.80;99.90;;;;;;5029777;28;20438;-68
2023/09/19 08:06:10;;;;;;;1999.90;999.90;;;16.90;99.90;;;;;;5063187;22;20493;-68
2023/09/19 08:08:39;;;;;;;1999.90;999.90;;;16.90;99.90;;;;;;5018005;28;20848;-68
2023/09/19 08:11:12;;;;;;;1999.90;999.90;;;17.00;99.90;;;;;;5029527;28;20406;-69
2023/09/19 08:13:43;;;;;;;1999.90;999.90;;;17.10;99.90;;;;;;5037401;28;20403;-67
2023/09/19 08:16:12;;;;;;;1999.90;999.90;;;17.10;99.90;;;;;;5037662;28;20418;-67
2023/09/19 08:18:40;;;;;;;1999.90;999.90;;;17.10;99.90;;;;;;5037245;28;20958;-68
2023/09/19 08:21:10;;;;;;;1999.90;999.90;;;17.20;99.90;;;;;;5035912;28;20425;-68
2023/09/19 08:23:39;;;;;;;1999.90;999.90;;;17.30;99.90;;;;;;5037558;28;20481;-68
2023/09/19 08:26:08;;;;;;;1999.90;999.90;;;17.30;99.90;;;;;;5037566;28;20802;-68
2023/09/19 08:28:40;;;;;;;1999.90;999.90;;;17.40;99.90;;;;;;5037920;28;20500;-72
2023/09/19 08:31:08;;;;;;;1999.90;999.90;;;17.50;99.90;;;;;;5037321;28;20404;-67
2023/09/19 08:33:35;;;;;;;1999.90;999.90;;;17.60;99.90;;;;;;5037391;28;20972;-68
2023/09/19 08:36:07;;;;;;;1999.90;999.90;;;17.60;99.90;;;;;;5037511;28;20785;-68
2023/09/19 08:38:34;;;;;;;1999.90;999.90;;;17.70;99.90;;;;;;5037396;28;20777;-68
2023/09/19 08:41:03;;;;;;;1999.90;999.90;;;17.70;99.90;;;;;;5037311;28;20855;-69
2023/09/19 08:43:29;;;;;;;1999.90;999.90;;;17.60;99.90;;;;;;5037140;28;20410;-69
2023/09/19 08:46:16;;;;;;;1999.90;999.90;;;17.70;99.90;;;;;;5033933;28;20844;-69
2023/09/19 08:48:54;;;;;;;1999.90;999.90;;;17.80;99.90;;;;;;5034305;28;20442;-68
2023/09/19 08:51:30;;;;;;;1999.90;999.90;;;17.70;99.90;;;;;;5023859;28;20421;-67
2023/09/19 08:54:06;;;;;;;1999.90;999.90;;;17.80;99.90;;;;;;5027409;28;20410;-65
2023/09/19 08:56:33;;;;;;;1999.90;999.90;;;17.90;99.90;;;;;;5017030;28;21023;-67
2023/09/19 08:59:09;;;;;;;1999.90;999.90;;;17.90;99.90;;;;;;5029124;28;20467;-66
2023/09/19 09:01:35;;;;;;;1999.90;999.90;;;17.90;99.90;;;;;;5018891;28;20534;-68
2023/09/19 09:04:02;;;;;;;1999.90;999.90;;;18.00;99.90;;;;;;5002320;28;20445;-68
2023/09/19 09:06:29;;;;;;;1999.90;999.90;;;18.00;99.90;;;;;;5013938;28;21047;-69
2023/09/19 09:08:55;;;;;;;1999.90;999.90;;;18.10;99.90;;;;;;5005430;28;20472;-68
2023/09/19 09:11:23;;;;;;;1999.90;999.90;;;18.20;99.90;;;;;;5009377;28;20420;-72
2023/09/19 09:13:49;;;;;;;1999.90;999.90;;;18.20;99.90;;;;;;5004275;28;20604;-68
2023/09/19 09:16:18;;;;;;;1999.90;999.90;;;18.20;99.90;;;;;;5019117;28;20432;-68
2023/09/19 09:18:54;;;;;;;1999.90;999.90;;;18.30;99.90;;;;;;5025982;28;20952;-68
2023/09/19 09:21:21;;;;;;;1999.90;999.90;;;18.40;99.90;;;;;;5020516;28;20421;-68
2023/09/19 09:23:47;;;;;;;1999.90;999.90;;;18.50;99.90;;;;;;5029736;28;20422;-68
2023/09/19 09:26:13;;;;;;;1999.90;999.90;;;18.50;99.90;;;;;;5029831;28;20419;-68
2023/09/19 09:28:45;;;;;;;1999.90;999.90;;;18.50;99.90;;;;;;5027066;28;20874;-68
2023/09/19 09:31:25;;;;;;;1999.90;999.90;;;18.70;99.90;;;;;;5015601;28;20259;-67
2023/09/19 09:33:57;;;;;;;1999.90;999.90;;;18.80;99.90;;;;;;5012653;28;20424;-67
2023/09/19 09:36:41;;;;;;;1999.90;999.90;;;18.80;99.90;;;;;;5012726;28;20937;-67
2023/09/19 09:39:18;;;;;;;1999.90;999.90;;;18.90;99.90;;;;;;5012892;28;20453;-67
2023/09/19 09:41:45;;;;;;;1999.90;999.90;;;18.90;99.90;;;;;;5011540;28;20925;-66
2023/09/19 09:44:17;;;;;;;1999.90;999.90;;;18.90;99.90;;;;;;5012199;28;20418;-69
2023/09/19 09:49:32;;;;;;;1999.90;999.90;;;19.00;99.90;;;;;;5010588;28;20473;-67
2023/09/19 09:52:05;;;;;;;1999.90;999.90;;;19.20;99.90;;;;;;5008538;28;20418;-67
2023/09/19 09:54:36;;;;;;;1999.90;999.90;;;19.20;99.90;;;;;;5010971;28;20517;-69
2023/09/19 09:57:13;;;;;;;1999.90;999.90;;;19.20;99.90;;;;;;5011134;28;20424;-67
2023/09/19 10:00:20;;;;;;;1999.90;999.90;;;19.20;99.90;;;;;;5011412;28;20488;-67
2023/09/19 10:02:46;;;;;;;1999.90;999.90;;;19.30;99.90;;;;;;5009588;28;20780;-67
2023/09/19 10:07:54;;;;;;;1999.90;999.90;;;19.30;99.90;;;;;;5012564;28;20463;-66
2023/09/19 10:13:07;;;;;;;1999.90;999.90;;;19.20;99.90;;;;;;5011812;28;20418;-67
2023/09/19 10:15:34;;;;;;;1999.90;999.90;;;19.30;99.90;;;;;;5027246;28;20549;-67
2023/09/19 10:18:08;;;;;;;1999.90;999.90;;;19.50;99.90;;;;;;5011936;28;20442;-67
2023/09/19 10:20:38;;;;;;;1999.90;999.90;;;19.70;99.90;;;;;;5012201;28;20489;-67
2023/09/19 10:23:10;;;;;;;1999.90;999.90;;;19.70;99.90;;;;;;5012201;28;20426;-69
2023/09/19 10:25:38;;;;;;;1999.90;999.90;;;20.00;99.90;;;;;;5011636;28;20439;-66
2023/09/19 10:28:10;;;;;;;1999.90;999.90;;;20.10;99.90;;;;;;5011034;28;20562;-67
2023/09/19 10:30:39;;;;;;;1999.90;999.90;;;20.00;99.90;;;;;;5011566;28;20780;-67
2023/09/19 10:33:07;;;;;;;1999.90;999.90;;;19.90;99.90;;;;;;5011742;28;20794;-67
2023/09/19 10:35:40;;;;;;;1999.90;999.90;;;19.90;99.90;;;;;;5010257;28;20927;-67
2023/09/19 10:38:06;;;;;;;1999.90;999.90;;;19.90;99.90;;;;;;5011942;28;20410;-67
2023/09/19 10:40:35;;;;;;;1999.90;999.90;;;19.90;99.90;;;;;;5010917;28;20465;-67
2023/09/19 10:43:05;;;;;;;1999.90;999.90;;;19.90;99.90;;;;;;5011382;28;20427;-66
2023/09/19 10:45:35;;;;;;;1999.90;999.90;;;19.80;99.90;;;;;;5010965;28;20434;-67
2023/09/19 10:48:02;;;;;;;1999.90;999.90;;;19.80;99.90;;;;;;5011302;28;20459;-67
2023/09/19 10:50:55;;;;;;;1999.90;999.90;;;19.80;99.40;;;;;;5010914;28;20466;-67
2023/09/19 10:53:21;;;;;;;1999.90;999.90;;;19.90;99.90;;;;;;5009690;28;20432;-68
2023/09/19 10:55:57;;;;;;;1999.90;999.90;;;20.00;99.90;;;;;;5011200;28;20440;-68
2023/09/19 10:58:34;;;;;;;1999.90;999.90;;;20.00;98.50;;;;;;5011368;28;20424;-67
2023/09/19 11:01:06;;;;;;;1999.90;999.90;;;20.10;97.90;;;;;;5011543;28;20493;-67
2023/09/19 11:03:33;;;;;;;1999.90;999.90;;;20.10;96.60;;;;;;5011564;28;20459;-67
2023/09/19 11:06:09;;;;;;;1999.90;999.90;;;20.00;97.00;;;;;;5011351;28;20469;-67
2023/09/19 11:08:57;;;;;;;1999.90;999.90;;;20.10;99.30;;;;;;5010711;28;20458;-67
2023/09/19 11:11:41;;;;;;;1999.90;999.90;;;20.20;97.00;;;;;;5007989;28;21011;-68
2023/09/19 11:14:30;;;;;;;1999.90;999.90;;;20.20;98.20;;;;;;5011010;28;20780;-68
2023/09/19 11:17:17;;;;;;;1999.90;999.90;;;20.30;96.50;;;;;;5007986;28;20934;-69
2023/09/19 11:22:56;;;;;;;1999.90;999.90;;;20.50;95.70;;;;;;5011038;28;20855;-70
2023/09/19 11:25:31;;;;;;;1999.90;999.90;;;20.60;91.40;;;;;;5010925;28;20424;-68
2023/09/19 11:28:06;;;;;;;1999.90;999.90;;;20.60;90.90;;;;;;5010946;28;20455;-68
2023/09/19 11:30:33;;;;;;;1999.90;999.90;;;20.50;91.60;;;;;;5010948;28;20468;-68
2023/09/19 11:33:21;;;;;;;1999.90;999.90;;;20.50;92.20;;;;;;5011163;28;20405;-68
2023/09/19 11:36:02;;;;;;;1999.90;999.90;;;20.60;88.70;;;;;;5010772;28;20943;-68
2023/09/19 11:38:44;;;;;;;1999.90;999.90;;;20.70;90.50;;;;;;5010755;28;20743;-68
2023/09/19 11:44:00;;;;;;;1999.90;999.90;;;21.30;82.30;;;;;;5011046;28;20408;-69
2023/09/19 11:46:28;;;;;;;1999.90;999.90;;;21.60;73.20;;;;;;5010894;28;20437;-69
2023/09/19 11:48:54;;;;;;;1999.90;999.90;;;22.00;71.70;;;;;;5010744;28;20878;-69
2023/09/19 11:51:23;;;;;;;1999.90;999.90;;;22.50;69.00;;;;;;5010702;28;20441;-68
2023/09/19 11:53:51;;;;;;;1999.90;999.90;;;22.70;58.60;;;;;;5010883;28;20401;-67
2023/09/19 11:56:23;;;;;;;1999.90;999.90;;;22.70;53.20;;;;;;5010698;28;20462;-69
2023/09/19 11:58:53;;;;;;;1999.90;999.90;;;22.70;52.10;;;;;;5010738;28;20419;-68
2023/09/19 12:01:33;;;;;;;1999.90;999.90;;;22.90;50.60;;;;;;5010795;28;20466;-68
2023/09/19 12:04:01;;;;;;;1999.90;999.90;;;22.80;48.00;;;;;;5010735;28;20419;-68
2023/09/19 12:06:29;;;;;;;1999.90;999.90;;;23.00;50.80;;;;;;5010556;28;20459;-68
2023/09/19 12:08:57;;;;;;;1999.90;999.90;;;23.10;47.70;;;;;;5010818;28;20561;-68
2023/09/19 12:11:23;;;;;;;1999.90;999.90;;;23.50;44.70;;;;;;5010205;28;20382;-69
2023/09/19 12:13:49;;;;;;;1999.90;999.90;;;23.70;45.10;;;;;;5010375;28;20415;-68
2023/09/19 12:16:22;;;;;;;1999.90;999.90;;;24.20;40.00;;;;;;5009191;28;20951;-67
2023/09/19 12:18:50;;;;;;;1999.90;999.90;;;24.50;37.60;;;;;;5010544;28;20507;-69
2023/09/19 12:21:31;;;;;;;1999.90;999.90;;;24.50;33.80;;;;;;5013793;28;20420;-68
2023/09/19 12:24:04;;;;;;;1999.90;999.90;;;24.60;29.40;;;;;;5014206;28;20386;-68